Dixon Springs, Tennessee
Current Conditions -  °F | °C
As of 5:53 PM on Monday 22 Dec 2014 (Local Time) from KBNA Reporting Station
Overcast Overcast  
Wind Chill: 52°   Ceiling: 1300
Heat Index: 52°   Visibility: 10mi
Dew Point: 48°   Wind: 12mph
Humidity: 86%   Direction: 150°SSE
Pressure: 29.74"   Gusts: NA
Location:  36.36°N, 86.05°W
Report Text: KBNA 222353Z 15010KT 10SM OVC013 11/09 A2974 RMK AO2 SLP068 60000 T01110089 10122 20111 57011
Loading
Personal Weather Stations






























Interactive Weather Map New forecast layout! Learn more

10-Day Weather Forecast

Advertisements
Track Severe Weather on mobile